sensor_id;sensor_type;location;lat;lon;timestamp;P1;durP1;ratioP1;P2;durP2;ratioP2
40503;SDS011;42292;49.048;8.374;2022-07-11T00:00:54;3.40;;;3.03;;
40503;SDS011;42292;49.048;8.374;2022-07-11T00:03:19;3.00;;;2.58;;
40503;SDS011;42292;49.048;8.374;2022-07-11T00:05:47;6.68;;;3.08;;
40503;SDS011;42292;49.048;8.374;2022-07-11T00:08:13;3.53;;;2.77;;
40503;SDS011;42292;49.048;8.374;2022-07-11T00:10:38;4.17;;;2.80;;
40503;SDS011;42292;49.048;8.374;2022-07-11T00:13:05;3.40;;;2.60;;
40503;SDS011;42292;49.048;8.374;2022-07-11T00:15:31;3.47;;;2.63;;
40503;SDS011;42292;49.048;8.374;2022-07-11T00:17:56;3.30;;;2.63;;
40503;SDS011;42292;49.048;8.374;2022-07-11T00:20:22;3.10;;;2.57;;
40503;SDS011;42292;49.048;8.374;2022-07-11T00:22:50;3.28;;;2.55;;
40503;SDS011;42292;49.048;8.374;2022-07-11T00:25:15;3.00;;;2.70;;
40503;SDS011;42292;49.048;8.374;2022-07-11T00:27:41;2.70;;;2.20;;
40503;SDS011;42292;49.048;8.374;2022-07-11T00:30:09;2.60;;;2.40;;
40503;SDS011;42292;49.048;8.374;2022-07-11T00:32:38;3.03;;;2.40;;
40503;SDS011;42292;49.048;8.374;2022-07-11T00:35:03;2.72;;;2.40;;
40503;SDS011;42292;49.048;8.374;2022-07-11T00:37:30;2.80;;;2.50;;
40503;SDS011;42292;49.048;8.374;2022-07-11T00:39:55;3.20;;;2.90;;
40503;SDS011;42292;49.048;8.374;2022-07-11T00:42:24;3.20;;;2.90;;
40503;SDS011;42292;49.048;8.374;2022-07-11T00:44:50;2.87;;;2.40;;
40503;SDS011;42292;49.048;8.374;2022-07-11T00:47:18;3.83;;;2.58;;
40503;SDS011;42292;49.048;8.374;2022-07-11T00:49:44;3.38;;;2.85;;
40503;SDS011;42292;49.048;8.374;2022-07-11T00:52:14;4.32;;;2.90;;
40503;SDS011;42292;49.048;8.374;2022-07-11T00:54:44;4.97;;;2.60;;
40503;SDS011;42292;49.048;8.374;2022-07-11T00:57:14;3.27;;;2.87;;
40503;SDS011;42292;49.048;8.374;2022-07-11T00:59:40;4.37;;;3.00;;
40503;SDS011;42292;49.048;8.374;2022-07-11T01:02:08;3.75;;;3.08;;
40503;SDS011;42292;49.048;8.374;2022-07-11T01:04:36;3.40;;;3.10;;
40503;SDS011;42292;49.048;8.374;2022-07-11T01:07:02;4.60;;;3.33;;
40503;SDS011;42292;49.048;8.374;2022-07-11T01:09:30;3.40;;;3.07;;
40503;SDS011;42292;49.048;8.374;2022-07-11T01:11:58;3.28;;;2.95;;
40503;SDS011;42292;49.048;8.374;2022-07-11T01:14:23;3.53;;;2.92;;
40503;SDS011;42292;49.048;8.374;2022-07-11T01:16:49;2.88;;;2.67;;
40503;SDS011;42292;49.048;8.374;2022-07-11T01:19:17;3.88;;;3.15;;
40503;SDS011;42292;49.048;8.374;2022-07-11T01:21:43;3.13;;;2.83;;
40503;SDS011;42292;49.048;8.374;2022-07-11T01:24:15;4.25;;;3.65;;
40503;SDS011;42292;49.048;8.374;2022-07-11T01:26:44;3.20;;;2.90;;
40503;SDS011;42292;49.048;8.374;2022-07-11T01:29:12;3.40;;;3.10;;
40503;SDS011;42292;49.048;8.374;2022-07-11T01:31:39;4.70;;;3.40;;
40503;SDS011;42292;49.048;8.374;2022-07-11T01:34:10;3.92;;;3.28;;
40503;SDS011;42292;49.048;8.374;2022-07-11T01:36:39;3.17;;;2.88;;
40503;SDS011;42292;49.048;8.374;2022-07-11T01:39:07;4.03;;;3.03;;
40503;SDS011;42292;49.048;8.374;2022-07-11T01:41:33;3.17;;;2.87;;
40503;SDS011;42292;49.048;8.374;2022-07-11T01:43:59;3.20;;;2.90;;
40503;SDS011;42292;49.048;8.374;2022-07-11T01:46:25;5.07;;;3.15;;
40503;SDS011;42292;49.048;8.374;2022-07-11T01:48:51;3.13;;;2.83;;
40503;SDS011;42292;49.048;8.374;2022-07-11T01:51:16;4.28;;;3.00;;
40503;SDS011;42292;49.048;8.374;2022-07-11T01:53:42;2.90;;;2.60;;
40503;SDS011;42292;49.048;8.374;2022-07-11T01:56:08;3.10;;;2.40;;
40503;SDS011;42292;49.048;8.374;2022-07-11T01:58:34;3.27;;;2.70;;
40503;SDS011;42292;49.048;8.374;2022-07-11T02:01:02;3.38;;;2.97;;
40503;SDS011;42292;49.048;8.374;2022-07-11T02:03:27;3.50;;;2.65;;
40503;SDS011;42292;49.048;8.374;2022-07-11T02:05:53;2.60;;;2.40;;
40503;SDS011;42292;49.048;8.374;2022-07-11T02:08:21;2.87;;;2.63;;
40503;SDS011;42292;49.048;8.374;2022-07-11T02:10:52;3.70;;;2.90;;
40503;SDS011;42292;49.048;8.374;2022-07-11T02:13:20;2.70;;;2.50;;
40503;SDS011;42292;49.048;8.374;2022-07-11T02:15:49;2.95;;;2.70;;
40503;SDS011;42292;49.048;8.374;2022-07-11T02:18:18;2.75;;;2.55;;
40503;SDS011;42292;49.048;8.374;2022-07-11T02:20:46;3.20;;;2.50;;
40503;SDS011;42292;49.048;8.374;2022-07-11T02:23:14;4.15;;;2.90;;
40503;SDS011;42292;49.048;8.374;2022-07-11T02:25:40;3.28;;;2.63;;
40503;SDS011;42292;49.048;8.374;2022-07-11T02:28:10;3.13;;;2.85;;
40503;SDS011;42292;49.048;8.374;2022-07-11T02:30:39;3.67;;;3.08;;
40503;SDS011;42292;49.048;8.374;2022-07-11T02:33:06;3.50;;;3.13;;
40503;SDS011;42292;49.048;8.374;2022-07-11T02:35:33;4.10;;;3.13;;
40503;SDS011;42292;49.048;8.374;2022-07-11T02:38:02;3.15;;;2.50;;
40503;SDS011;42292;49.048;8.374;2022-07-11T02:40:28;3.40;;;3.10;;
40503;SDS011;42292;49.048;8.374;2022-07-11T02:42:56;3.37;;;2.60;;
40503;SDS011;42292;49.048;8.374;2022-07-11T02:45:21;3.35;;;2.90;;
40503;SDS011;42292;49.048;8.374;2022-07-11T02:47:47;3.53;;;2.90;;
40503;SDS011;42292;49.048;8.374;2022-07-11T02:50:13;2.70;;;2.50;;
40503;SDS011;42292;49.048;8.374;2022-07-11T02:52:39;4.40;;;2.85;;
40503;SDS011;42292;49.048;8.374;2022-07-11T02:55:06;3.30;;;2.80;;
40503;SDS011;42292;49.048;8.374;2022-07-11T02:57:38;3.03;;;2.72;;
40503;SDS011;42292;49.048;8.374;2022-07-11T03:00:08;5.38;;;3.50;;
40503;SDS011;42292;49.048;8.374;2022-07-11T03:02:39;4.32;;;2.80;;
40503;SDS011;42292;49.048;8.374;2022-07-11T03:05:05;3.38;;;2.70;;
40503;SDS011;42292;49.048;8.374;2022-07-11T03:07:31;2.92;;;2.65;;
40503;SDS011;42292;49.048;8.374;2022-07-11T03:09:56;3.40;;;2.88;;
40503;SDS011;42292;49.048;8.374;2022-07-11T03:12:22;3.22;;;2.95;;
40503;SDS011;42292;49.048;8.374;2022-07-11T03:14:51;3.58;;;2.60;;
40503;SDS011;42292;49.048;8.374;2022-07-11T03:17:19;3.20;;;2.80;;
40503;SDS011;42292;49.048;8.374;2022-07-11T03:19:49;3.53;;;3.22;;
40503;SDS011;42292;49.048;8.374;2022-07-11T03:22:15;3.00;;;2.70;;
40503;SDS011;42292;49.048;8.374;2022-07-11T03:24:46;3.50;;;3.20;;
40503;SDS011;42292;49.048;8.374;2022-07-11T03:27:14;3.35;;;2.80;;
40503;SDS011;42292;49.048;8.374;2022-07-11T03:29:40;3.58;;;2.90;;
40503;SDS011;42292;49.048;8.374;2022-07-11T03:32:08;4.93;;;3.20;;
40503;SDS011;42292;49.048;8.374;2022-07-11T03:34:34;3.08;;;2.85;;
40503;SDS011;42292;49.048;8.374;2022-07-11T03:37:00;4.07;;;2.92;;
40503;SDS011;42292;49.048;8.374;2022-07-11T03:39:26;3.43;;;3.13;;
40503;SDS011;42292;49.048;8.374;2022-07-11T03:41:52;4.75;;;3.40;;
40503;SDS011;42292;49.048;8.374;2022-07-11T03:44:18;3.88;;;2.92;;
40503;SDS011;42292;49.048;8.374;2022-07-11T03:46:46;4.00;;;3.17;;
40503;SDS011;42292;49.048;8.374;2022-07-11T03:49:13;4.93;;;3.30;;
40503;SDS011;42292;49.048;8.374;2022-07-11T03:51:40;3.10;;;2.80;;
40503;SDS011;42292;49.048;8.374;2022-07-11T03:54:06;3.75;;;2.72;;
40503;SDS011;42292;49.048;8.374;2022-07-11T03:56:34;3.45;;;2.83;;
40503;SDS011;42292;49.048;8.374;2022-07-11T03:59:00;4.03;;;2.93;;
40503;SDS011;42292;49.048;8.374;2022-07-11T04:01:25;4.13;;;3.03;;
40503;SDS011;42292;49.048;8.374;2022-07-11T04:03:51;3.63;;;3.10;;
40503;SDS011;42292;49.048;8.374;2022-07-11T04:06:21;3.23;;;2.80;;
40503;SDS011;42292;49.048;8.374;2022-07-11T04:08:47;3.60;;;2.90;;
40503;SDS011;42292;49.048;8.374;2022-07-11T04:11:13;2.83;;;2.40;;
40503;SDS011;42292;49.048;8.374;2022-07-11T04:13:41;2.90;;;2.70;;
40503;SDS011;42292;49.048;8.374;2022-07-11T04:16:07;3.00;;;2.65;;
40503;SDS011;42292;49.048;8.374;2022-07-11T04:18:32;3.03;;;2.50;;
40503;SDS011;42292;49.048;8.374;2022-07-11T04:21:00;3.17;;;2.63;;
40503;SDS011;42292;49.048;8.374;2022-07-11T04:23:28;5.40;;;3.00;;
40503;SDS011;42292;49.048;8.374;2022-07-11T04:25:53;5.20;;;3.25;;
40503;SDS011;42292;49.048;8.374;2022-07-11T04:28:21;3.10;;;2.80;;
40503;SDS011;42292;49.048;8.374;2022-07-11T04:30:51;3.58;;;3.03;;
40503;SDS011;42292;49.048;8.374;2022-07-11T04:33:19;3.40;;;2.77;;
40503;SDS011;42292;49.048;8.374;2022-07-11T04:35:46;3.38;;;2.70;;
40503;SDS011;42292;49.048;8.374;2022-07-11T04:38:12;3.40;;;2.83;;
40503;SDS011;42292;49.048;8.374;2022-07-11T04:40:40;3.90;;;2.90;;
40503;SDS011;42292;49.048;8.374;2022-07-11T04:43:13;3.75;;;3.17;;
40503;SDS011;42292;49.048;8.374;2022-07-11T04:45:38;3.78;;;3.38;;
40503;SDS011;42292;49.048;8.374;2022-07-11T04:48:06;4.30;;;3.60;;
40503;SDS011;42292;49.048;8.374;2022-07-11T04:50:32;5.07;;;3.28;;
40503;SDS011;42292;49.048;8.374;2022-07-11T04:52:57;3.92;;;3.20;;
40503;SDS011;42292;49.048;8.374;2022-07-11T04:55:25;4.35;;;3.67;;
40503;SDS011;42292;49.048;8.374;2022-07-11T04:57:51;4.80;;;3.50;;
40503;SDS011;42292;49.048;8.374;2022-07-11T05:00:17;6.55;;;3.65;;
40503;SDS011;42292;49.048;8.374;2022-07-11T05:02:45;6.03;;;3.57;;
40503;SDS011;42292;49.048;8.374;2022-07-11T05:05:11;5.28;;;3.80;;
40503;SDS011;42292;49.048;8.374;2022-07-11T05:07:37;5.82;;;3.60;;
40503;SDS011;42292;49.048;8.374;2022-07-11T05:10:03;3.83;;;3.33;;
40503;SDS011;42292;49.048;8.374;2022-07-11T05:12:32;3.88;;;3.50;;
40503;SDS011;42292;49.048;8.374;2022-07-11T05:14:59;4.32;;;3.55;;
40503;SDS011;42292;49.048;8.374;2022-07-11T05:17:26;4.57;;;3.35;;
40503;SDS011;42292;49.048;8.374;2022-07-11T05:19:53;3.95;;;3.20;;
40503;SDS011;42292;49.048;8.374;2022-07-11T05:22:21;5.88;;;3.40;;
40503;SDS011;42292;49.048;8.374;2022-07-11T05:24:47;4.75;;;3.30;;
40503;SDS011;42292;49.048;8.374;2022-07-11T05:27:15;3.72;;;3.05;;
40503;SDS011;42292;49.048;8.374;2022-07-11T05:29:43;4.97;;;3.45;;
40503;SDS011;42292;49.048;8.374;2022-07-11T05:32:08;4.55;;;3.45;;
40503;SDS011;42292;49.048;8.374;2022-07-11T05:34:39;4.57;;;3.50;;
40503;SDS011;42292;49.048;8.374;2022-07-11T05:37:07;5.57;;;3.58;;
40503;SDS011;42292;49.048;8.374;2022-07-11T05:39:32;5.13;;;3.20;;
40503;SDS011;42292;49.048;8.374;2022-07-11T05:42:00;5.70;;;3.60;;
40503;SDS011;42292;49.048;8.374;2022-07-11T05:44:28;6.18;;;4.00;;
40503;SDS011;42292;49.048;8.374;2022-07-11T05:47:00;8.52;;;3.35;;
40503;SDS011;42292;49.048;8.374;2022-07-11T05:49:30;9.57;;;3.67;;
40503;SDS011;42292;49.048;8.374;2022-07-11T05:51:56;6.22;;;3.72;;
40503;SDS011;42292;49.048;8.374;2022-07-11T05:54:24;4.00;;;3.20;;
40503;SDS011;42292;49.048;8.374;2022-07-11T05:56:50;6.63;;;3.50;;
40503;SDS011;42292;49.048;8.374;2022-07-11T05:59:15;3.57;;;3.10;;
40503;SDS011;42292;49.048;8.374;2022-07-11T06:01:41;5.30;;;3.30;;
40503;SDS011;42292;49.048;8.374;2022-07-11T06:04:07;5.88;;;3.67;;
40503;SDS011;42292;49.048;8.374;2022-07-11T06:06:32;8.23;;;3.50;;
40503;SDS011;42292;49.048;8.374;2022-07-11T06:08:58;6.30;;;3.38;;
40503;SDS011;42292;49.048;8.374;2022-07-11T06:11:29;4.63;;;3.40;;
40503;SDS011;42292;49.048;8.374;2022-07-11T06:13:57;4.38;;;3.13;;
40503;SDS011;42292;49.048;8.374;2022-07-11T06:16:25;4.38;;;3.25;;
40503;SDS011;42292;49.048;8.374;2022-07-11T06:18:51;4.65;;;3.53;;
40503;SDS011;42292;49.048;8.374;2022-07-11T06:21:17;5.53;;;3.17;;
40503;SDS011;42292;49.048;8.374;2022-07-11T06:23:48;4.03;;;3.20;;
40503;SDS011;42292;49.048;8.374;2022-07-11T06:26:19;3.47;;;3.05;;
40503;SDS011;42292;49.048;8.374;2022-07-11T06:28:47;3.35;;;2.83;;
40503;SDS011;42292;49.048;8.374;2022-07-11T06:31:15;4.63;;;3.03;;
40503;SDS011;42292;49.048;8.374;2022-07-11T06:33:41;3.28;;;2.97;;
40503;SDS011;42292;49.048;8.374;2022-07-11T06:36:09;5.47;;;3.40;;
40503;SDS011;42292;49.048;8.374;2022-07-11T06:38:37;5.05;;;2.65;;
40503;SDS011;42292;49.048;8.374;2022-07-11T06:41:03;6.50;;;2.83;;
40503;SDS011;42292;49.048;8.374;2022-07-11T06:43:29;4.18;;;3.03;;
40503;SDS011;42292;49.048;8.374;2022-07-11T06:45:55;6.72;;;3.00;;
40503;SDS011;42292;49.048;8.374;2022-07-11T06:48:21;3.63;;;3.00;;
40503;SDS011;42292;49.048;8.374;2022-07-11T06:50:51;4.80;;;3.17;;
40503;SDS011;42292;49.048;8.374;2022-07-11T06:53:17;3.53;;;2.95;;
40503;SDS011;42292;49.048;8.374;2022-07-11T06:55:42;4.57;;;3.10;;
40503;SDS011;42292;49.048;8.374;2022-07-11T06:58:11;3.87;;;3.00;;
40503;SDS011;42292;49.048;8.374;2022-07-11T07:00:56;4.35;;;3.38;;
40503;SDS011;42292;49.048;8.374;2022-07-11T07:03:25;4.60;;;3.20;;
40503;SDS011;42292;49.048;8.374;2022-07-11T07:05:50;4.90;;;3.30;;
40503;SDS011;42292;49.048;8.374;2022-07-11T07:08:20;4.80;;;2.67;;
40503;SDS011;42292;49.048;8.374;2022-07-11T07:10:47;3.43;;;2.73;;
40503;SDS011;42292;49.048;8.374;2022-07-11T07:13:12;4.13;;;2.93;;
40503;SDS011;42292;49.048;8.374;2022-07-11T07:15:38;4.37;;;2.97;;
40503;SDS011;42292;49.048;8.374;2022-07-11T07:18:06;5.40;;;3.00;;
40503;SDS011;42292;49.048;8.374;2022-07-11T07:20:34;3.33;;;2.33;;
40503;SDS011;42292;49.048;8.374;2022-07-11T07:23:02;6.05;;;2.35;;
40503;SDS011;42292;49.048;8.374;2022-07-11T07:25:27;3.77;;;2.23;;
40503;SDS011;42292;49.048;8.374;2022-07-11T07:27:55;3.60;;;2.22;;
40503;SDS011;42292;49.048;8.374;2022-07-11T07:30:23;2.83;;;2.00;;
40503;SDS011;42292;49.048;8.374;2022-07-11T07:32:52;3.33;;;2.13;;
40503;SDS011;42292;49.048;8.374;2022-07-11T07:35:22;3.17;;;2.15;;
40503;SDS011;42292;49.048;8.374;2022-07-11T07:37:50;4.53;;;2.42;;
40503;SDS011;42292;49.048;8.374;2022-07-11T07:40:20;4.07;;;2.03;;
40503;SDS011;42292;49.048;8.374;2022-07-11T07:42:46;3.15;;;1.95;;
40503;SDS011;42292;49.048;8.374;2022-07-11T07:45:14;2.77;;;1.70;;
40503;SDS011;42292;49.048;8.374;2022-07-11T07:47:40;4.10;;;1.87;;
40503;SDS011;42292;49.048;8.374;2022-07-11T07:50:08;4.35;;;2.28;;
40503;SDS011;42292;49.048;8.374;2022-07-11T07:52:34;5.97;;;3.10;;
40503;SDS011;42292;49.048;8.374;2022-07-11T07:55:00;6.43;;;3.10;;
40503;SDS011;42292;49.048;8.374;2022-07-11T07:57:28;5.38;;;3.80;;
40503;SDS011;42292;49.048;8.374;2022-07-11T07:59:53;9.43;;;3.93;;
40503;SDS011;42292;49.048;8.374;2022-07-11T08:02:39;5.18;;;3.92;;
40503;SDS011;42292;49.048;8.374;2022-07-11T08:05:07;5.65;;;3.25;;
40503;SDS011;42292;49.048;8.374;2022-07-11T08:07:37;7.00;;;3.90;;
40503;SDS011;42292;49.048;8.374;2022-07-11T08:10:08;4.82;;;3.40;;
40503;SDS011;42292;49.048;8.374;2022-07-11T08:12:42;8.67;;;3.50;;
40503;SDS011;42292;49.048;8.374;2022-07-11T08:15:07;5.13;;;3.40;;
40503;SDS011;42292;49.048;8.374;2022-07-11T08:17:33;5.97;;;3.58;;
40503;SDS011;42292;49.048;8.374;2022-07-11T08:19:59;7.40;;;3.00;;
40503;SDS011;42292;49.048;8.374;2022-07-11T08:22:24;3.50;;;2.67;;
40503;SDS011;42292;49.048;8.374;2022-07-11T08:24:50;3.40;;;2.90;;
40503;SDS011;42292;49.048;8.374;2022-07-11T08:27:16;3.80;;;3.05;;
40503;SDS011;42292;49.048;8.374;2022-07-11T08:29:41;3.90;;;3.10;;
40503;SDS011;42292;49.048;8.374;2022-07-11T08:32:09;6.38;;;2.90;;
40503;SDS011;42292;49.048;8.374;2022-07-11T08:34:39;5.53;;;3.35;;
40503;SDS011;42292;49.048;8.374;2022-07-11T08:37:05;5.75;;;3.25;;
40503;SDS011;42292;49.048;8.374;2022-07-11T08:39:33;4.22;;;3.03;;
40503;SDS011;42292;49.048;8.374;2022-07-11T08:41:58;4.75;;;3.25;;
40503;SDS011;42292;49.048;8.374;2022-07-11T08:44:26;5.55;;;3.30;;
40503;SDS011;42292;49.048;8.374;2022-07-11T08:46:52;4.37;;;2.57;;
40503;SDS011;42292;49.048;8.374;2022-07-11T08:49:18;6.25;;;2.70;;
40503;SDS011;42292;49.048;8.374;2022-07-11T08:51:47;3.53;;;2.47;;
40503;SDS011;42292;49.048;8.374;2022-07-11T08:54:12;4.13;;;2.67;;
40503;SDS011;42292;49.048;8.374;2022-07-11T08:56:41;3.30;;;2.30;;
40503;SDS011;42292;49.048;8.374;2022-07-11T08:59:12;4.32;;;2.50;;
40503;SDS011;42292;49.048;8.374;2022-07-11T09:01:42;2.90;;;1.95;;
40503;SDS011;42292;49.048;8.374;2022-07-11T09:04:10;3.47;;;2.10;;
40503;SDS011;42292;49.048;8.374;2022-07-11T09:06:38;3.57;;;2.50;;
40503;SDS011;42292;49.048;8.374;2022-07-11T09:09:04;4.63;;;2.00;;
40503;SDS011;42292;49.048;8.374;2022-07-11T09:11:49;3.28;;;2.10;;
40503;SDS011;42292;49.048;8.374;2022-07-11T09:14:21;3.05;;;2.15;;
40503;SDS011;42292;49.048;8.374;2022-07-11T09:16:52;4.00;;;2.08;;
40503;SDS011;42292;49.048;8.374;2022-07-11T09:19:31;5.28;;;2.22;;
40503;SDS011;42292;49.048;8.374;2022-07-11T09:22:08;3.50;;;2.38;;
40503;SDS011;42292;49.048;8.374;2022-07-11T09:30:23;2.90;;;2.00;;
40503;SDS011;42292;49.048;8.374;2022-07-11T09:35:24;3.38;;;2.10;;
40503;SDS011;42292;49.048;8.374;2022-07-11T09:37:58;3.67;;;2.15;;
40503;SDS011;42292;49.048;8.374;2022-07-11T09:40:27;3.47;;;1.92;;
40503;SDS011;42292;49.048;8.374;2022-07-11T09:42:54;2.15;;;1.60;;
40503;SDS011;42292;49.048;8.374;2022-07-11T09:45:25;1.88;;;1.45;;
40503;SDS011;42292;49.048;8.374;2022-07-11T09:47:54;2.05;;;1.30;;
40503;SDS011;42292;49.048;8.374;2022-07-11T09:50:27;2.15;;;1.70;;
40503;SDS011;42292;49.048;8.374;2022-07-11T09:53:01;2.50;;;1.70;;
40503;SDS011;42292;49.048;8.374;2022-07-11T09:55:27;1.20;;;1.10;;
40503;SDS011;42292;49.048;8.374;2022-07-11T09:57:54;1.38;;;1.23;;
40503;SDS011;42292;49.048;8.374;2022-07-11T10:00:20;2.58;;;1.40;;
40503;SDS011;42292;49.048;8.374;2022-07-11T10:02:46;2.63;;;1.40;;
40503;SDS011;42292;49.048;8.374;2022-07-11T10:05:14;2.53;;;1.50;;
40503;SDS011;42292;49.048;8.374;2022-07-11T10:07:42;2.00;;;1.30;;
40503;SDS011;42292;49.048;8.374;2022-07-11T10:10:08;3.72;;;1.60;;
40503;SDS011;42292;49.048;8.374;2022-07-11T10:12:35;3.53;;;1.80;;
40503;SDS011;42292;49.048;8.374;2022-07-11T10:15:03;2.53;;;1.60;;
40503;SDS011;42292;49.048;8.374;2022-07-11T10:20:20;3.10;;;1.90;;
40503;SDS011;42292;49.048;8.374;2022-07-11T10:26:21;3.05;;;1.80;;
40503;SDS011;42292;49.048;8.374;2022-07-11T10:28:56;5.07;;;2.30;;
40503;SDS011;42292;49.048;8.374;2022-07-11T10:31:26;2.92;;;1.90;;
40503;SDS011;42292;49.048;8.374;2022-07-11T10:34:02;2.78;;;1.60;;
40503;SDS011;42292;49.048;8.374;2022-07-11T10:36:39;3.58;;;1.77;;
40503;SDS011;42292;49.048;8.374;2022-07-11T10:39:13;1.90;;;1.60;;
40503;SDS011;42292;49.048;8.374;2022-07-11T10:41:43;2.85;;;1.70;;
40503;SDS011;42292;49.048;8.374;2022-07-11T10:44:10;2.55;;;1.35;;
40503;SDS011;42292;49.048;8.374;2022-07-11T10:46:38;2.03;;;1.30;;
40503;SDS011;42292;49.048;8.374;2022-07-11T10:49:15;3.60;;;1.50;;
40503;SDS011;42292;49.048;8.374;2022-07-11T10:51:54;4.28;;;1.38;;
40503;SDS011;42292;49.048;8.374;2022-07-11T11:02:23;3.75;;;1.35;;
40503;SDS011;42292;49.048;8.374;2022-07-11T11:04:56;3.90;;;1.30;;
40503;SDS011;42292;49.048;8.374;2022-07-11T11:15:44;3.00;;;1.10;;
40503;SDS011;42292;49.048;8.374;2022-07-11T11:21:33;2.58;;;1.08;;
40503;SDS011;42292;49.048;8.374;2022-07-11T11:26:08;3.03;;;1.15;;
40503;SDS011;42292;49.048;8.374;2022-07-11T11:28:37;2.20;;;1.20;;
40503;SDS011;42292;49.048;8.374;2022-07-11T11:31:18;2.87;;;1.10;;
40503;SDS011;42292;49.048;8.374;2022-07-11T11:33:47;2.63;;;1.27;;
40503;SDS011;42292;49.048;8.374;2022-07-11T11:36:15;3.55;;;1.30;;
40503;SDS011;42292;49.048;8.374;2022-07-11T11:38:45;3.03;;;1.40;;
40503;SDS011;42292;49.048;8.374;2022-07-11T11:41:14;2.13;;;1.08;;
40503;SDS011;42292;49.048;8.374;2022-07-11T11:43:54;1.88;;;1.38;;
40503;SDS011;42292;49.048;8.374;2022-07-11T11:46:30;3.15;;;1.20;;
40503;SDS011;42292;49.048;8.374;2022-07-11T11:48:59;2.33;;;1.30;;
40503;SDS011;42292;49.048;8.374;2022-07-11T11:51:27;3.13;;;1.30;;
40503;SDS011;42292;49.048;8.374;2022-07-11T11:53:54;4.30;;;1.25;;
40503;SDS011;42292;49.048;8.374;2022-07-11T11:56:36;3.03;;;1.13;;
40503;SDS011;42292;49.048;8.374;2022-07-11T11:59:10;3.17;;;1.25;;
40503;SDS011;42292;49.048;8.374;2022-07-11T12:01:41;3.60;;;1.10;;
40503;SDS011;42292;49.048;8.374;2022-07-11T12:04:12;2.67;;;1.10;;
40503;SDS011;42292;49.048;8.374;2022-07-11T12:06:41;3.80;;;1.17;;
40503;SDS011;42292;49.048;8.374;2022-07-11T12:12:09;5.43;;;1.08;;
40503;SDS011;42292;49.048;8.374;2022-07-11T12:14:53;2.90;;;1.17;;
40503;SDS011;42292;49.048;8.374;2022-07-11T12:17:23;3.35;;;1.35;;
40503;SDS011;42292;49.048;8.374;2022-07-11T12:19:50;1.70;;;0.90;;
40503;SDS011;42292;49.048;8.374;2022-07-11T12:22:18;3.60;;;1.00;;
40503;SDS011;42292;49.048;8.374;2022-07-11T12:24:47;2.42;;;1.10;;
40503;SDS011;42292;49.048;8.374;2022-07-11T12:27:20;2.47;;;0.90;;
40503;SDS011;42292;49.048;8.374;2022-07-11T12:29:46;4.45;;;1.10;;
40503;SDS011;42292;49.048;8.374;2022-07-11T12:32:18;2.33;;;1.00;;
40503;SDS011;42292;49.048;8.374;2022-07-11T12:34:48;2.13;;;1.00;;
40503;SDS011;42292;49.048;8.374;2022-07-11T12:37:15;3.53;;;1.25;;
40503;SDS011;42292;49.048;8.374;2022-07-11T12:39:49;1.77;;;1.13;;
40503;SDS011;42292;49.048;8.374;2022-07-11T12:44:57;1.45;;;0.82;;
40503;SDS011;42292;49.048;8.374;2022-07-11T12:47:25;2.53;;;0.70;;
40503;SDS011;42292;49.048;8.374;2022-07-11T12:49:53;1.00;;;0.52;;
40503;SDS011;42292;49.048;8.374;2022-07-11T12:52:19;2.42;;;0.80;;
40503;SDS011;42292;49.048;8.374;2022-07-11T12:54:47;1.83;;;0.70;;
40503;SDS011;42292;49.048;8.374;2022-07-11T12:57:15;1.73;;;0.80;;
40503;SDS011;42292;49.048;8.374;2022-07-11T12:59:44;1.77;;;0.70;;
40503;SDS011;42292;49.048;8.374;2022-07-11T13:02:14;3.67;;;0.70;;
40503;SDS011;42292;49.048;8.374;2022-07-11T13:10:17;1.70;;;0.80;;
40503;SDS011;42292;49.048;8.374;2022-07-11T13:12:45;2.00;;;0.68;;
40503;SDS011;42292;49.048;8.374;2022-07-11T13:15:12;1.52;;;0.70;;
40503;SDS011;42292;49.048;8.374;2022-07-11T13:17:43;3.42;;;1.20;;
40503;SDS011;42292;49.048;8.374;2022-07-11T13:20:22;2.15;;;0.90;;
40503;SDS011;42292;49.048;8.374;2022-07-11T13:22:51;3.30;;;0.95;;
40503;SDS011;42292;49.048;8.374;2022-07-11T13:25:18;1.60;;;0.80;;
40503;SDS011;42292;49.048;8.374;2022-07-11T13:27:47;1.83;;;0.60;;
40503;SDS011;42292;49.048;8.374;2022-07-11T13:30:16;2.08;;;0.70;;
40503;SDS011;42292;49.048;8.374;2022-07-11T13:32:46;3.38;;;0.95;;
40503;SDS011;42292;49.048;8.374;2022-07-11T13:35:15;2.00;;;0.95;;
40503;SDS011;42292;49.048;8.374;2022-07-11T13:37:45;2.30;;;0.95;;
40503;SDS011;42292;49.048;8.374;2022-07-11T13:40:13;2.90;;;1.00;;
40503;SDS011;42292;49.048;8.374;2022-07-11T13:42:40;1.70;;;0.95;;
40503;SDS011;42292;49.048;8.374;2022-07-11T13:45:07;1.55;;;0.90;;
40503;SDS011;42292;49.048;8.374;2022-07-11T13:47:34;1.50;;;1.20;;
40503;SDS011;42292;49.048;8.374;2022-07-11T13:50:02;1.85;;;1.20;;
40503;SDS011;42292;49.048;8.374;2022-07-11T13:52:28;3.85;;;1.10;;
40503;SDS011;42292;49.048;8.374;2022-07-11T13:54:54;2.92;;;1.25;;
40503;SDS011;42292;49.048;8.374;2022-07-11T13:57:20;2.70;;;1.20;;
40503;SDS011;42292;49.048;8.374;2022-07-11T13:59:47;3.50;;;1.20;;
40503;SDS011;42292;49.048;8.374;2022-07-11T14:02:13;1.55;;;1.00;;
40503;SDS011;42292;49.048;8.374;2022-07-11T14:04:39;2.60;;;1.20;;
40503;SDS011;42292;49.048;8.374;2022-07-11T14:07:07;1.40;;;1.20;;
40503;SDS011;42292;49.048;8.374;2022-07-11T14:09:39;2.60;;;1.27;;
40503;SDS011;42292;49.048;8.374;2022-07-11T14:12:08;2.30;;;1.40;;
40503;SDS011;42292;49.048;8.374;2022-07-11T14:14:34;2.87;;;1.30;;
40503;SDS011;42292;49.048;8.374;2022-07-11T14:17:00;4.10;;;1.63;;
40503;SDS011;42292;49.048;8.374;2022-07-11T14:19:26;2.88;;;1.30;;
40503;SDS011;42292;49.048;8.374;2022-07-11T14:21:52;3.55;;;1.50;;
40503;SDS011;42292;49.048;8.374;2022-07-11T14:24:23;2.83;;;1.40;;
40503;SDS011;42292;49.048;8.374;2022-07-11T14:26:49;2.57;;;1.50;;
40503;SDS011;42292;49.048;8.374;2022-07-11T14:29:15;2.50;;;1.33;;
40503;SDS011;42292;49.048;8.374;2022-07-11T14:31:41;2.17;;;1.33;;
40503;SDS011;42292;49.048;8.374;2022-07-11T14:34:07;3.92;;;1.40;;
40503;SDS011;42292;49.048;8.374;2022-07-11T14:36:39;1.75;;;1.30;;
40503;SDS011;42292;49.048;8.374;2022-07-11T14:39:06;2.20;;;1.25;;
40503;SDS011;42292;49.048;8.374;2022-07-11T14:41:32;2.60;;;1.57;;
40503;SDS011;42292;49.048;8.374;2022-07-11T14:43:57;2.13;;;1.23;;
40503;SDS011;42292;49.048;8.374;2022-07-11T14:46:23;2.20;;;1.33;;
40503;SDS011;42292;49.048;8.374;2022-07-11T14:48:48;2.30;;;1.43;;
40503;SDS011;42292;49.048;8.374;2022-07-11T14:51:14;2.40;;;1.50;;
40503;SDS011;42292;49.048;8.374;2022-07-11T14:53:40;2.37;;;1.90;;
40503;SDS011;42292;49.048;8.374;2022-07-11T14:56:06;3.20;;;1.85;;
40503;SDS011;42292;49.048;8.374;2022-07-11T14:58:34;3.42;;;1.90;;
40503;SDS011;42292;49.048;8.374;2022-07-11T15:01:00;2.55;;;2.00;;
40503;SDS011;42292;49.048;8.374;2022-07-11T15:03:25;2.10;;;1.88;;
40503;SDS011;42292;49.048;8.374;2022-07-11T15:06:04;3.80;;;1.70;;
40503;SDS011;42292;49.048;8.374;2022-07-11T15:08:31;4.18;;;1.60;;
40503;SDS011;42292;49.048;8.374;2022-07-11T15:11:15;2.45;;;1.60;;
40503;SDS011;42292;49.048;8.374;2022-07-11T15:13:59;4.15;;;1.55;;
40503;SDS011;42292;49.048;8.374;2022-07-11T15:16:27;1.80;;;1.58;;
40503;SDS011;42292;49.048;8.374;2022-07-11T15:19:01;1.90;;;1.50;;
40503;SDS011;42292;49.048;8.374;2022-07-11T15:21:31;1.90;;;1.70;;
40503;SDS011;42292;49.048;8.374;2022-07-11T15:23:57;2.80;;;1.67;;
40503;SDS011;42292;49.048;8.374;2022-07-11T15:26:25;1.90;;;1.60;;
40503;SDS011;42292;49.048;8.374;2022-07-11T15:28:52;2.65;;;1.63;;
40503;SDS011;42292;49.048;8.374;2022-07-11T15:31:18;3.45;;;1.52;;
40503;SDS011;42292;49.048;8.374;2022-07-11T15:33:44;2.72;;;1.58;;
40503;SDS011;42292;49.048;8.374;2022-07-11T15:36:10;4.00;;;1.73;;
40503;SDS011;42292;49.048;8.374;2022-07-11T15:38:37;3.13;;;1.80;;
40503;SDS011;42292;49.048;8.374;2022-07-11T15:41:05;1.90;;;1.70;;